sensor_id;sensor_type;location;lat;lon;timestamp;P1;durP1;ratioP1;P2;durP2;ratioP2
17365;SDS011;8800;50.118;9.900;2022-09-09T00:02:08;3.35;;;1.80;;
17365;SDS011;8800;50.118;9.900;2022-09-09T00:04:42;2.92;;;1.75;;
17365;SDS011;8800;50.118;9.900;2022-09-09T00:07:13;3.53;;;1.80;;
17365;SDS011;8800;50.118;9.900;2022-09-09T00:09:44;3.25;;;1.30;;
17365;SDS011;8800;50.118;9.900;2022-09-09T00:12:14;2.60;;;1.58;;
17365;SDS011;8800;50.118;9.900;2022-09-09T00:14:43;2.08;;;1.35;;
17365;SDS011;8800;50.118;9.900;2022-09-09T00:17:12;4.25;;;1.98;;
17365;SDS011;8800;50.118;9.900;2022-09-09T00:19:43;6.80;;;1.65;;
17365;SDS011;8800;50.118;9.900;2022-09-09T00:22:16;3.38;;;1.75;;
17365;SDS011;8800;50.118;9.900;2022-09-09T00:24:43;4.22;;;1.92;;
17365;SDS011;8800;50.118;9.900;2022-09-09T00:27:13;5.82;;;1.92;;
17365;SDS011;8800;50.118;9.900;2022-09-09T00:29:43;5.32;;;1.88;;
17365;SDS011;8800;50.118;9.900;2022-09-09T00:32:12;4.55;;;1.77;;
17365;SDS011;8800;50.118;9.900;2022-09-09T00:34:41;7.65;;;1.95;;
17365;SDS011;8800;50.118;9.900;2022-09-09T00:37:11;5.85;;;1.95;;
17365;SDS011;8800;50.118;9.900;2022-09-09T00:39:39;6.05;;;1.85;;
17365;SDS011;8800;50.118;9.900;2022-09-09T00:42:13;6.03;;;1.88;;
17365;SDS011;8800;50.118;9.900;2022-09-09T00:44:44;3.83;;;2.00;;
17365;SDS011;8800;50.118;9.900;2022-09-09T00:47:19;2.67;;;1.48;;
17365;SDS011;8800;50.118;9.900;2022-09-09T00:49:49;3.95;;;1.77;;
17365;SDS011;8800;50.118;9.900;2022-09-09T00:52:26;2.58;;;1.63;;
17365;SDS011;8800;50.118;9.900;2022-09-09T00:54:59;4.40;;;1.95;;
17365;SDS011;8800;50.118;9.900;2022-09-09T00:57:30;5.60;;;2.22;;
17365;SDS011;8800;50.118;9.900;2022-09-09T00:59:58;3.90;;;1.83;;
17365;SDS011;8800;50.118;9.900;2022-09-09T01:02:29;8.27;;;2.15;;
17365;SDS011;8800;50.118;9.900;2022-09-09T01:04:59;3.65;;;2.00;;
17365;SDS011;8800;50.118;9.900;2022-09-09T01:07:29;2.97;;;1.50;;
17365;SDS011;8800;50.118;9.900;2022-09-09T01:09:57;3.97;;;1.67;;
17365;SDS011;8800;50.118;9.900;2022-09-09T01:12:25;3.63;;;1.60;;
17365;SDS011;8800;50.118;9.900;2022-09-09T01:14:54;5.57;;;1.75;;
17365;SDS011;8800;50.118;9.900;2022-09-09T01:17:23;3.25;;;1.70;;
17365;SDS011;8800;50.118;9.900;2022-09-09T01:19:56;3.38;;;1.60;;
17365;SDS011;8800;50.118;9.900;2022-09-09T01:22:28;3.35;;;1.60;;
17365;SDS011;8800;50.118;9.900;2022-09-09T01:25:09;4.20;;;1.65;;
17365;SDS011;8800;50.118;9.900;2022-09-09T01:27:40;6.28;;;2.00;;
17365;SDS011;8800;50.118;9.900;2022-09-09T01:30:09;3.67;;;1.70;;
17365;SDS011;8800;50.118;9.900;2022-09-09T01:32:37;3.47;;;1.90;;
17365;SDS011;8800;50.118;9.900;2022-09-09T01:35:05;4.10;;;1.50;;
17365;SDS011;8800;50.118;9.900;2022-09-09T01:37:33;2.85;;;1.40;;
17365;SDS011;8800;50.118;9.900;2022-09-09T01:40:00;4.80;;;1.98;;
17365;SDS011;8800;50.118;9.900;2022-09-09T01:42:27;3.30;;;1.40;;
17365;SDS011;8800;50.118;9.900;2022-09-09T01:44:55;6.85;;;1.80;;
17365;SDS011;8800;50.118;9.900;2022-09-09T01:47:21;3.63;;;1.58;;
17365;SDS011;8800;50.118;9.900;2022-09-09T01:49:48;3.55;;;1.83;;
17365;SDS011;8800;50.118;9.900;2022-09-09T01:52:14;3.88;;;1.95;;
17365;SDS011;8800;50.118;9.900;2022-09-09T01:54:40;4.60;;;2.20;;
17365;SDS011;8800;50.118;9.900;2022-09-09T01:57:08;3.22;;;2.20;;
17365;SDS011;8800;50.118;9.900;2022-09-09T01:59:41;4.18;;;1.92;;
17365;SDS011;8800;50.118;9.900;2022-09-09T02:02:13;7.13;;;2.03;;
17365;SDS011;8800;50.118;9.900;2022-09-09T02:04:42;3.25;;;1.85;;
17365;SDS011;8800;50.118;9.900;2022-09-09T02:07:15;6.32;;;1.90;;
17365;SDS011;8800;50.118;9.900;2022-09-09T02:09:47;4.57;;;1.58;;
17365;SDS011;8800;50.118;9.900;2022-09-09T02:12:16;3.30;;;2.00;;
17365;SDS011;8800;50.118;9.900;2022-09-09T02:14:45;4.75;;;1.95;;
17365;SDS011;8800;50.118;9.900;2022-09-09T02:17:15;4.78;;;1.77;;
17365;SDS011;8800;50.118;9.900;2022-09-09T02:19:44;4.15;;;1.98;;
17365;SDS011;8800;50.118;9.900;2022-09-09T02:22:13;4.35;;;1.92;;
17365;SDS011;8800;50.118;9.900;2022-09-09T02:24:42;5.35;;;2.05;;
17365;SDS011;8800;50.118;9.900;2022-09-09T02:27:09;3.28;;;1.70;;
17365;SDS011;8800;50.118;9.900;2022-09-09T02:29:36;4.53;;;1.92;;
17365;SDS011;8800;50.118;9.900;2022-09-09T02:32:05;4.82;;;2.20;;
17365;SDS011;8800;50.118;9.900;2022-09-09T02:34:34;4.70;;;1.80;;
17365;SDS011;8800;50.118;9.900;2022-09-09T02:37:01;4.60;;;1.80;;
17365;SDS011;8800;50.118;9.900;2022-09-09T02:39:29;5.07;;;1.70;;
17365;SDS011;8800;50.118;9.900;2022-09-09T02:41:56;5.45;;;2.00;;
17365;SDS011;8800;50.118;9.900;2022-09-09T02:44:22;2.92;;;1.73;;
17365;SDS011;8800;50.118;9.900;2022-09-09T02:49:35;2.55;;;1.58;;
17365;SDS011;8800;50.118;9.900;2022-09-09T02:52:04;2.80;;;1.75;;
17365;SDS011;8800;50.118;9.900;2022-09-09T02:54:32;3.30;;;1.90;;
17365;SDS011;8800;50.118;9.900;2022-09-09T02:57:00;3.95;;;1.83;;
17365;SDS011;8800;50.118;9.900;2022-09-09T02:59:28;3.40;;;1.70;;
17365;SDS011;8800;50.118;9.900;2022-09-09T03:01:55;4.88;;;1.50;;
17365;SDS011;8800;50.118;9.900;2022-09-09T03:04:22;2.90;;;1.58;;
17365;SDS011;8800;50.118;9.900;2022-09-09T03:06:50;5.28;;;1.70;;
17365;SDS011;8800;50.118;9.900;2022-09-09T03:09:17;3.78;;;1.80;;
17365;SDS011;8800;50.118;9.900;2022-09-09T03:11:43;4.22;;;1.92;;
17365;SDS011;8800;50.118;9.900;2022-09-09T03:14:10;4.15;;;1.75;;
17365;SDS011;8800;50.118;9.900;2022-09-09T03:16:36;6.22;;;1.70;;
17365;SDS011;8800;50.118;9.900;2022-09-09T03:19:02;3.35;;;1.50;;
17365;SDS011;8800;50.118;9.900;2022-09-09T03:21:29;3.75;;;1.95;;
17365;SDS011;8800;50.118;9.900;2022-09-09T03:23:57;3.97;;;1.60;;
17365;SDS011;8800;50.118;9.900;2022-09-09T03:26:23;3.97;;;1.85;;
17365;SDS011;8800;50.118;9.900;2022-09-09T03:28:49;3.05;;;1.67;;
17365;SDS011;8800;50.118;9.900;2022-09-09T03:31:16;5.47;;;1.73;;
17365;SDS011;8800;50.118;9.900;2022-09-09T03:33:44;3.50;;;1.70;;
17365;SDS011;8800;50.118;9.900;2022-09-09T03:36:11;4.47;;;1.80;;
17365;SDS011;8800;50.118;9.900;2022-09-09T03:38:37;8.57;;;2.17;;
17365;SDS011;8800;50.118;9.900;2022-09-09T03:41:05;2.70;;;1.60;;
17365;SDS011;8800;50.118;9.900;2022-09-09T03:43:32;3.78;;;1.80;;
17365;SDS011;8800;50.118;9.900;2022-09-09T03:45:59;5.07;;;1.98;;
17365;SDS011;8800;50.118;9.900;2022-09-09T03:48:26;5.55;;;2.15;;
17365;SDS011;8800;50.118;9.900;2022-09-09T03:50:53;5.40;;;2.03;;
17365;SDS011;8800;50.118;9.900;2022-09-09T03:53:22;3.63;;;1.80;;
17365;SDS011;8800;50.118;9.900;2022-09-09T03:55:50;3.65;;;1.90;;
17365;SDS011;8800;50.118;9.900;2022-09-09T03:58:19;6.18;;;2.10;;
17365;SDS011;8800;50.118;9.900;2022-09-09T04:00:52;6.15;;;1.90;;
17365;SDS011;8800;50.118;9.900;2022-09-09T04:03:19;4.10;;;1.65;;
17365;SDS011;8800;50.118;9.900;2022-09-09T04:05:48;5.55;;;1.90;;
17365;SDS011;8800;50.118;9.900;2022-09-09T04:08:14;5.93;;;1.70;;
17365;SDS011;8800;50.118;9.900;2022-09-09T04:10:41;3.90;;;1.92;;
17365;SDS011;8800;50.118;9.900;2022-09-09T04:13:07;4.65;;;2.05;;
17365;SDS011;8800;50.118;9.900;2022-09-09T04:15:35;4.53;;;1.73;;
17365;SDS011;8800;50.118;9.900;2022-09-09T04:18:01;4.97;;;1.75;;
17365;SDS011;8800;50.118;9.900;2022-09-09T04:20:28;5.55;;;1.90;;
17365;SDS011;8800;50.118;9.900;2022-09-09T04:22:55;5.32;;;1.52;;
17365;SDS011;8800;50.118;9.900;2022-09-09T04:25:21;3.70;;;1.90;;
17365;SDS011;8800;50.118;9.900;2022-09-09T04:27:47;2.42;;;1.70;;
17365;SDS011;8800;50.118;9.900;2022-09-09T04:30:19;4.28;;;1.50;;
17365;SDS011;8800;50.118;9.900;2022-09-09T04:32:47;5.45;;;2.00;;
17365;SDS011;8800;50.118;9.900;2022-09-09T04:35:13;6.75;;;2.28;;
17365;SDS011;8800;50.118;9.900;2022-09-09T04:37:40;3.33;;;1.88;;
17365;SDS011;8800;50.118;9.900;2022-09-09T04:40:07;4.53;;;1.77;;
17365;SDS011;8800;50.118;9.900;2022-09-09T04:42:34;5.25;;;2.10;;
17365;SDS011;8800;50.118;9.900;2022-09-09T04:45:01;4.28;;;1.98;;
17365;SDS011;8800;50.118;9.900;2022-09-09T04:47:27;6.82;;;2.00;;
17365;SDS011;8800;50.118;9.900;2022-09-09T04:49:55;4.78;;;1.90;;
17365;SDS011;8800;50.118;9.900;2022-09-09T04:52:21;5.38;;;2.15;;
17365;SDS011;8800;50.118;9.900;2022-09-09T04:54:48;5.63;;;1.98;;
17365;SDS011;8800;50.118;9.900;2022-09-09T04:57:14;4.68;;;2.00;;
17365;SDS011;8800;50.118;9.900;2022-09-09T04:59:40;7.07;;;2.30;;
17365;SDS011;8800;50.118;9.900;2022-09-09T05:02:07;6.85;;;1.85;;
17365;SDS011;8800;50.118;9.900;2022-09-09T05:04:33;4.80;;;2.38;;
17365;SDS011;8800;50.118;9.900;2022-09-09T05:07:01;7.63;;;2.35;;
17365;SDS011;8800;50.118;9.900;2022-09-09T05:09:28;4.10;;;2.22;;
17365;SDS011;8800;50.118;9.900;2022-09-09T05:11:55;3.72;;;1.98;;
17365;SDS011;8800;50.118;9.900;2022-09-09T05:14:22;5.20;;;1.98;;
17365;SDS011;8800;50.118;9.900;2022-09-09T05:16:49;4.55;;;1.90;;
17365;SDS011;8800;50.118;9.900;2022-09-09T05:19:16;4.68;;;1.70;;
17365;SDS011;8800;50.118;9.900;2022-09-09T05:21:44;5.60;;;2.30;;
17365;SDS011;8800;50.118;9.900;2022-09-09T05:24:12;4.22;;;2.00;;
17365;SDS011;8800;50.118;9.900;2022-09-09T05:26:38;3.15;;;2.10;;
17365;SDS011;8800;50.118;9.900;2022-09-09T05:29:05;5.75;;;2.15;;
17365;SDS011;8800;50.118;9.900;2022-09-09T05:31:31;6.07;;;2.17;;
17365;SDS011;8800;50.118;9.900;2022-09-09T05:33:58;5.82;;;2.65;;
17365;SDS011;8800;50.118;9.900;2022-09-09T05:36:25;4.72;;;2.47;;
17365;SDS011;8800;50.118;9.900;2022-09-09T05:38:52;8.50;;;3.63;;
17365;SDS011;8800;50.118;9.900;2022-09-09T05:41:20;7.22;;;3.40;;
17365;SDS011;8800;50.118;9.900;2022-09-09T05:43:48;5.10;;;3.03;;
17365;SDS011;8800;50.118;9.900;2022-09-09T05:46:16;6.60;;;2.92;;
17365;SDS011;8800;50.118;9.900;2022-09-09T05:48:43;6.60;;;2.97;;
17365;SDS011;8800;50.118;9.900;2022-09-09T05:51:12;5.45;;;2.88;;
17365;SDS011;8800;50.118;9.900;2022-09-09T05:53:40;4.60;;;2.85;;
17365;SDS011;8800;50.118;9.900;2022-09-09T05:56:08;6.03;;;2.92;;
17365;SDS011;8800;50.118;9.900;2022-09-09T05:58:37;8.90;;;3.42;;
17365;SDS011;8800;50.118;9.900;2022-09-09T06:01:05;10.55;;;5.38;;
17365;SDS011;8800;50.118;9.900;2022-09-09T06:03:32;6.45;;;3.80;;
17365;SDS011;8800;50.118;9.900;2022-09-09T06:05:59;8.57;;;3.67;;
17365;SDS011;8800;50.118;9.900;2022-09-09T06:08:26;4.35;;;2.90;;
17365;SDS011;8800;50.118;9.900;2022-09-09T06:10:52;7.25;;;3.08;;
17365;SDS011;8800;50.118;9.900;2022-09-09T06:13:18;6.28;;;3.22;;
17365;SDS011;8800;50.118;9.900;2022-09-09T06:15:50;5.90;;;2.90;;
17365;SDS011;8800;50.118;9.900;2022-09-09T06:18:17;6.60;;;2.72;;
17365;SDS011;8800;50.118;9.900;2022-09-09T06:20:52;4.43;;;2.85;;
17365;SDS011;8800;50.118;9.900;2022-09-09T06:23:19;5.45;;;2.88;;
17365;SDS011;8800;50.118;9.900;2022-09-09T06:25:45;8.93;;;2.70;;
17365;SDS011;8800;50.118;9.900;2022-09-09T06:28:12;3.53;;;2.38;;
17365;SDS011;8800;50.118;9.900;2022-09-09T06:30:38;4.07;;;2.50;;
17365;SDS011;8800;50.118;9.900;2022-09-09T06:33:06;6.50;;;2.72;;
17365;SDS011;8800;50.118;9.900;2022-09-09T06:35:32;4.78;;;2.28;;
17365;SDS011;8800;50.118;9.900;2022-09-09T06:37:59;5.35;;;2.58;;
17365;SDS011;8800;50.118;9.900;2022-09-09T06:40:25;7.97;;;2.80;;
17365;SDS011;8800;50.118;9.900;2022-09-09T06:42:52;4.18;;;2.70;;
17365;SDS011;8800;50.118;9.900;2022-09-09T06:45:18;4.38;;;2.78;;
17365;SDS011;8800;50.118;9.900;2022-09-09T06:47:44;5.53;;;2.45;;
17365;SDS011;8800;50.118;9.900;2022-09-09T06:50:12;5.50;;;2.50;;
17365;SDS011;8800;50.118;9.900;2022-09-09T06:52:39;3.75;;;2.30;;
17365;SDS011;8800;50.118;9.900;2022-09-09T06:55:06;6.78;;;2.15;;
17365;SDS011;8800;50.118;9.900;2022-09-09T06:57:33;3.83;;;2.00;;
17365;SDS011;8800;50.118;9.900;2022-09-09T06:59:59;3.78;;;1.65;;
17365;SDS011;8800;50.118;9.900;2022-09-09T07:02:26;4.32;;;2.20;;
17365;SDS011;8800;50.118;9.900;2022-09-09T07:04:53;4.28;;;2.20;;
17365;SDS011;8800;50.118;9.900;2022-09-09T07:07:21;5.72;;;2.17;;
17365;SDS011;8800;50.118;9.900;2022-09-09T07:09:49;3.45;;;2.17;;
17365;SDS011;8800;50.118;9.900;2022-09-09T07:12:16;6.22;;;1.88;;
17365;SDS011;8800;50.118;9.900;2022-09-09T07:14:42;5.50;;;2.45;;
17365;SDS011;8800;50.118;9.900;2022-09-09T07:17:09;7.95;;;2.60;;
17365;SDS011;8800;50.118;9.900;2022-09-09T07:19:36;4.90;;;1.80;;
17365;SDS011;8800;50.118;9.900;2022-09-09T07:22:03;5.40;;;2.25;;
17365;SDS011;8800;50.118;9.900;2022-09-09T07:24:33;6.32;;;2.20;;
17365;SDS011;8800;50.118;9.900;2022-09-09T07:27:00;5.97;;;1.67;;
17365;SDS011;8800;50.118;9.900;2022-09-09T07:29:28;8.27;;;1.60;;
17365;SDS011;8800;50.118;9.900;2022-09-09T07:31:55;5.72;;;1.55;;
17365;SDS011;8800;50.118;9.900;2022-09-09T07:34:24;4.00;;;1.33;;
17365;SDS011;8800;50.118;9.900;2022-09-09T07:36:50;4.68;;;0.88;;
17365;SDS011;8800;50.118;9.900;2022-09-09T07:39:17;2.42;;;0.90;;
17365;SDS011;8800;50.118;9.900;2022-09-09T07:41:47;4.43;;;1.10;;
17365;SDS011;8800;50.118;9.900;2022-09-09T07:44:14;2.90;;;0.98;;
17365;SDS011;8800;50.118;9.900;2022-09-09T07:46:43;4.57;;;1.17;;
17365;SDS011;8800;50.118;9.900;2022-09-09T07:49:11;5.03;;;1.00;;
17365;SDS011;8800;50.118;9.900;2022-09-09T07:51:39;6.43;;;1.20;;
17365;SDS011;8800;50.118;9.900;2022-09-09T07:54:07;5.80;;;1.17;;
17365;SDS011;8800;50.118;9.900;2022-09-09T07:56:34;4.57;;;1.10;;
17365;SDS011;8800;50.118;9.900;2022-09-09T07:59:03;4.72;;;1.00;;
17365;SDS011;8800;50.118;9.900;2022-09-09T08:01:32;3.08;;;0.95;;
17365;SDS011;8800;50.118;9.900;2022-09-09T08:03:59;4.47;;;0.98;;
17365;SDS011;8800;50.118;9.900;2022-09-09T08:06:27;5.45;;;0.82;;
17365;SDS011;8800;50.118;9.900;2022-09-09T08:08:54;6.43;;;1.05;;
17365;SDS011;8800;50.118;9.900;2022-09-09T08:11:21;4.47;;;1.10;;
17365;SDS011;8800;50.118;9.900;2022-09-09T08:13:49;4.88;;;1.10;;
17365;SDS011;8800;50.118;9.900;2022-09-09T08:16:18;5.65;;;1.10;;
17365;SDS011;8800;50.118;9.900;2022-09-09T08:18:46;3.17;;;0.90;;
17365;SDS011;8800;50.118;9.900;2022-09-09T08:21:14;8.75;;;1.42;;
17365;SDS011;8800;50.118;9.900;2022-09-09T08:23:43;3.55;;;0.80;;
17365;SDS011;8800;50.118;9.900;2022-09-09T08:26:11;4.50;;;1.10;;
17365;SDS011;8800;50.118;9.900;2022-09-09T08:28:38;6.18;;;0.90;;
17365;SDS011;8800;50.118;9.900;2022-09-09T08:31:09;6.60;;;1.10;;
17365;SDS011;8800;50.118;9.900;2022-09-09T08:33:38;3.67;;;1.05;;
17365;SDS011;8800;50.118;9.900;2022-09-09T08:36:05;6.15;;;1.40;;
17365;SDS011;8800;50.118;9.900;2022-09-09T08:38:32;4.82;;;1.00;;
17365;SDS011;8800;50.118;9.900;2022-09-09T08:41:00;3.90;;;1.05;;
17365;SDS011;8800;50.118;9.900;2022-09-09T08:43:28;4.55;;;1.05;;
17365;SDS011;8800;50.118;9.900;2022-09-09T08:45:57;4.90;;;0.93;;
17365;SDS011;8800;50.118;9.900;2022-09-09T08:48:31;6.28;;;0.98;;
17365;SDS011;8800;50.118;9.900;2022-09-09T08:51:03;5.03;;;1.00;;
17365;SDS011;8800;50.118;9.900;2022-09-09T08:53:34;9.10;;;1.20;;
17365;SDS011;8800;50.118;9.900;2022-09-09T08:56:07;4.32;;;1.00;;
17365;SDS011;8800;50.118;9.900;2022-09-09T08:58:38;5.20;;;0.75;;
17365;SDS011;8800;50.118;9.900;2022-09-09T09:01:17;3.83;;;0.93;;
17365;SDS011;8800;50.118;9.900;2022-09-09T09:03:48;5.47;;;1.10;;
17365;SDS011;8800;50.118;9.900;2022-09-09T09:06:21;6.30;;;1.10;;
17365;SDS011;8800;50.118;9.900;2022-09-09T09:08:54;5.45;;;1.00;;
17365;SDS011;8800;50.118;9.900;2022-09-09T09:11:22;6.60;;;1.05;;
17365;SDS011;8800;50.118;9.900;2022-09-09T09:13:50;5.32;;;1.10;;
17365;SDS011;8800;50.118;9.900;2022-09-09T09:16:20;10.77;;;1.27;;
17365;SDS011;8800;50.118;9.900;2022-09-09T09:18:48;6.80;;;1.05;;
17365;SDS011;8800;50.118;9.900;2022-09-09T09:21:16;4.60;;;0.70;;
17365;SDS011;8800;50.118;9.900;2022-09-09T09:23:49;4.35;;;0.90;;
17365;SDS011;8800;50.118;9.900;2022-09-09T09:26:17;4.25;;;0.80;;
17365;SDS011;8800;50.118;9.900;2022-09-09T09:28:44;3.80;;;0.90;;
17365;SDS011;8800;50.118;9.900;2022-09-09T09:31:12;4.35;;;0.80;;
17365;SDS011;8800;50.118;9.900;2022-09-09T09:33:42;4.00;;;0.90;;
17365;SDS011;8800;50.118;9.900;2022-09-09T09:36:11;6.40;;;0.82;;
17365;SDS011;8800;50.118;9.900;2022-09-09T09:38:40;2.90;;;0.75;;
17365;SDS011;8800;50.118;9.900;2022-09-09T09:41:19;3.70;;;0.80;;
17365;SDS011;8800;50.118;9.900;2022-09-09T09:43:55;5.07;;;0.70;;
17365;SDS011;8800;50.118;9.900;2022-09-09T09:46:22;5.18;;;0.95;;
17365;SDS011;8800;50.118;9.900;2022-09-09T09:48:56;3.63;;;0.73;;
17365;SDS011;8800;50.118;9.900;2022-09-09T09:51:22;10.43;;;1.10;;
17365;SDS011;8800;50.118;9.900;2022-09-09T09:53:49;5.78;;;1.10;;
17365;SDS011;8800;50.118;9.900;2022-09-09T09:56:25;3.92;;;1.00;;
17365;SDS011;8800;50.118;9.900;2022-09-09T09:58:52;4.95;;;0.85;;
17365;SDS011;8800;50.118;9.900;2022-09-09T10:01:20;5.35;;;1.15;;
17365;SDS011;8800;50.118;9.900;2022-09-09T10:03:50;4.22;;;0.88;;
17365;SDS011;8800;50.118;9.900;2022-09-09T10:06:17;2.70;;;0.82;;
17365;SDS011;8800;50.118;9.900;2022-09-09T10:08:44;5.30;;;1.13;;
17365;SDS011;8800;50.118;9.900;2022-09-09T10:11:23;5.72;;;1.00;;
17365;SDS011;8800;50.118;9.900;2022-09-09T10:13:53;4.65;;;0.82;;
17365;SDS011;8800;50.118;9.900;2022-09-09T10:16:35;5.32;;;0.95;;
17365;SDS011;8800;50.118;9.900;2022-09-09T10:19:05;3.20;;;0.80;;
17365;SDS011;8800;50.118;9.900;2022-09-09T10:21:42;5.90;;;0.90;;
17365;SDS011;8800;50.118;9.900;2022-09-09T10:27:03;6.88;;;0.90;;
17365;SDS011;8800;50.118;9.900;2022-09-09T10:32:24;6.28;;;0.95;;
17365;SDS011;8800;50.118;9.900;2022-09-09T10:34:56;3.95;;;0.98;;
17365;SDS011;8800;50.118;9.900;2022-09-09T10:37:29;7.38;;;1.10;;
17365;SDS011;8800;50.118;9.900;2022-09-09T10:40:00;4.40;;;1.00;;
17365;SDS011;8800;50.118;9.900;2022-09-09T10:42:30;10.25;;;1.13;;
17365;SDS011;8800;50.118;9.900;2022-09-09T10:45:00;4.05;;;0.77;;
17365;SDS011;8800;50.118;9.900;2022-09-09T10:50:20;2.97;;;0.55;;
17365;SDS011;8800;50.118;9.900;2022-09-09T10:52:50;4.47;;;0.90;;
17365;SDS011;8800;50.118;9.900;2022-09-09T10:55:23;3.03;;;0.80;;
17365;SDS011;8800;50.118;9.900;2022-09-09T10:57:53;4.10;;;0.80;;
17365;SDS011;8800;50.118;9.900;2022-09-09T11:00:20;2.90;;;0.82;;
17365;SDS011;8800;50.118;9.900;2022-09-09T11:02:48;2.90;;;0.80;;
17365;SDS011;8800;50.118;9.900;2022-09-09T11:05:17;4.07;;;0.60;;
17365;SDS011;8800;50.118;9.900;2022-09-09T11:07:46;4.15;;;1.00;;
17365;SDS011;8800;50.118;9.900;2022-09-09T11:10:16;5.57;;;1.00;;
17365;SDS011;8800;50.118;9.900;2022-09-09T11:12:43;6.43;;;0.98;;
17365;SDS011;8800;50.118;9.900;2022-09-09T11:15:16;7.40;;;1.08;;
17365;SDS011;8800;50.118;9.900;2022-09-09T11:17:44;4.22;;;0.98;;
17365;SDS011;8800;50.118;9.900;2022-09-09T11:20:12;7.22;;;1.00;;
17365;SDS011;8800;50.118;9.900;2022-09-09T11:22:39;4.60;;;1.05;;
17365;SDS011;8800;50.118;9.900;2022-09-09T11:25:10;4.47;;;0.85;;
17365;SDS011;8800;50.118;9.900;2022-09-09T11:27:41;3.20;;;1.08;;
17365;SDS011;8800;50.118;9.900;2022-09-09T11:30:19;3.38;;;0.93;;
17365;SDS011;8800;50.118;9.900;2022-09-09T11:35:30;3.38;;;0.47;;
17365;SDS011;8800;50.118;9.900;2022-09-09T11:38:10;4.25;;;0.98;;
17365;SDS011;8800;50.118;9.900;2022-09-09T11:40:39;4.25;;;0.88;;
17365;SDS011;8800;50.118;9.900;2022-09-09T11:43:08;5.10;;;0.85;;
17365;SDS011;8800;50.118;9.900;2022-09-09T11:45:39;11.07;;;1.10;;
17365;SDS011;8800;50.118;9.900;2022-09-09T11:48:21;5.40;;;0.90;;
17365;SDS011;8800;50.118;9.900;2022-09-09T11:50:57;3.53;;;0.90;;
17365;SDS011;8800;50.118;9.900;2022-09-09T11:53:24;4.10;;;0.88;;
17365;SDS011;8800;50.118;9.900;2022-09-09T11:56:00;2.47;;;0.70;;
17365;SDS011;8800;50.118;9.900;2022-09-09T11:58:28;2.55;;;0.70;;
17365;SDS011;8800;50.118;9.900;2022-09-09T12:00:58;5.70;;;0.90;;
17365;SDS011;8800;50.118;9.900;2022-09-09T12:03:32;3.65;;;0.60;;
17365;SDS011;8800;50.118;9.900;2022-09-09T12:06:00;4.78;;;0.80;;
17365;SDS011;8800;50.118;9.900;2022-09-09T12:08:35;4.53;;;0.90;;
17365;SDS011;8800;50.118;9.900;2022-09-09T12:11:02;3.10;;;0.60;;
17365;SDS011;8800;50.118;9.900;2022-09-09T12:13:29;2.35;;;0.85;;
17365;SDS011;8800;50.118;9.900;2022-09-09T12:15:57;4.70;;;0.80;;
17365;SDS011;8800;50.118;9.900;2022-09-09T12:18:26;2.72;;;0.63;;
17365;SDS011;8800;50.118;9.900;2022-09-09T12:21:00;2.90;;;0.68;;
17365;SDS011;8800;50.118;9.900;2022-09-09T12:23:35;2.88;;;0.70;;
17365;SDS011;8800;50.118;9.900;2022-09-09T12:26:06;3.95;;;0.73;;
17365;SDS011;8800;50.118;9.900;2022-09-09T12:28:39;2.85;;;0.80;;
17365;SDS011;8800;50.118;9.900;2022-09-09T12:31:10;3.67;;;0.73;;
17365;SDS011;8800;50.118;9.900;2022-09-09T12:33:44;1.40;;;0.65;;
17365;SDS011;8800;50.118;9.900;2022-09-09T12:36:14;2.63;;;0.50;;
17365;SDS011;8800;50.118;9.900;2022-09-09T12:38:42;1.80;;;0.50;;
17365;SDS011;8800;50.118;9.900;2022-09-09T12:41:17;2.60;;;0.60;;
17365;SDS011;8800;50.118;9.900;2022-09-09T12:43:45;4.93;;;0.80;;
17365;SDS011;8800;50.118;9.900;2022-09-09T12:46:13;4.20;;;0.88;;
17365;SDS011;8800;50.118;9.900;2022-09-09T12:48:44;2.47;;;0.50;;
17365;SDS011;8800;50.118;9.900;2022-09-09T12:51:16;1.60;;;0.40;;
17365;SDS011;8800;50.118;9.900;2022-09-09T12:53:43;1.77;;;0.50;;
17365;SDS011;8800;50.118;9.900;2022-09-09T12:56:18;3.33;;;0.73;;
17365;SDS011;8800;50.118;9.900;2022-09-09T12:58:45;2.03;;;0.50;;
17365;SDS011;8800;50.118;9.900;2022-09-09T13:01:18;1.70;;;0.40;;
17365;SDS011;8800;50.118;9.900;2022-09-09T13:03:47;1.42;;;0.50;;
17365;SDS011;8800;50.118;9.900;2022-09-09T13:06:18;2.80;;;0.47;;
17365;SDS011;8800;50.118;9.900;2022-09-09T13:08:45;2.53;;;0.70;;
17365;SDS011;8800;50.118;9.900;2022-09-09T13:11:12;1.90;;;0.60;;
17365;SDS011;8800;50.118;9.900;2022-09-09T13:13:41;1.83;;;0.50;;
17365;SDS011;8800;50.118;9.900;2022-09-09T13:16:18;3.15;;;0.55;;
17365;SDS011;8800;50.118;9.900;2022-09-09T13:18:45;4.90;;;0.63;;
17365;SDS011;8800;50.118;9.900;2022-09-09T13:21:12;2.38;;;0.60;;
17365;SDS011;8800;50.118;9.900;2022-09-09T13:23:39;2.65;;;0.50;;
17365;SDS011;8800;50.118;9.900;2022-09-09T13:26:06;1.50;;;0.60;;
17365;SDS011;8800;50.118;9.900;2022-09-09T13:28:46;2.13;;;0.38;;
17365;SDS011;8800;50.118;9.900;2022-09-09T13:31:19;2.53;;;0.50;;
17365;SDS011;8800;50.118;9.900;2022-09-09T13:33:46;1.67;;;0.50;;
17365;SDS011;8800;50.118;9.900;2022-09-09T13:36:13;3.13;;;0.60;;
17365;SDS011;8800;50.118;9.900;2022-09-09T13:38:40;3.42;;;0.60;;
17365;SDS011;8800;50.118;9.900;2022-09-09T13:41:19;1.45;;;0.45;;
17365;SDS011;8800;50.118;9.900;2022-09-09T13:43:46;2.40;;;0.70;;
17365;SDS011;8800;50.118;9.900;2022-09-09T13:46:25;2.08;;;0.50;;
17365;SDS011;8800;50.118;9.900;2022-09-09T13:48:55;3.75;;;0.60;;
17365;SDS011;8800;50.118;9.900;2022-09-09T13:51:27;2.72;;;0.63;;
17365;SDS011;8800;50.118;9.900;2022-09-09T13:53:54;2.50;;;0.60;;
17365;SDS011;8800;50.118;9.900;2022-09-09T13:56:22;3.58;;;0.80;;
17365;SDS011;8800;50.118;9.900;2022-09-09T13:58:49;2.33;;;0.50;;
17365;SDS011;8800;50.118;9.900;2022-09-09T14:01:15;2.45;;;0.45;;
17365;SDS011;8800;50.118;9.900;2022-09-09T14:03:41;2.38;;;0.60;;
17365;SDS011;8800;50.118;9.900;2022-09-09T14:06:08;2.03;;;0.60;;
17365;SDS011;8800;50.118;9.900;2022-09-09T14:08:36;2.42;;;0.50;;
17365;SDS011;8800;50.118;9.900;2022-09-09T14:11:03;2.08;;;0.40;;
17365;SDS011;8800;50.118;9.900;2022-09-09T14:13:30;3.90;;;0.70;;
17365;SDS011;8800;50.118;9.900;2022-09-09T14:15:56;1.48;;;0.38;;
17365;SDS011;8800;50.118;9.900;2022-09-09T14:18:23;3.40;;;0.80;;
17365;SDS011;8800;50.118;9.900;2022-09-09T14:20:50;2.95;;;0.70;;
17365;SDS011;8800;50.118;9.900;2022-09-09T14:23:16;2.25;;;0.63;;
17365;SDS011;8800;50.118;9.900;2022-09-09T14:25:45;2.70;;;0.70;;
17365;SDS011;8800;50.118;9.900;2022-09-09T14:28:12;3.83;;;0.70;;
17365;SDS011;8800;50.118;9.900;2022-09-09T14:30:39;2.28;;;0.85;;
17365;SDS011;8800;50.118;9.900;2022-09-09T14:33:06;3.00;;;0.60;;
17365;SDS011;8800;50.118;9.900;2022-09-09T14:35:33;2.35;;;0.60;;
17365;SDS011;8800;50.118;9.900;2022-09-09T14:37:59;2.92;;;0.43;;
17365;SDS011;8800;50.118;9.900;2022-09-09T14:40:27;4.38;;;0.77;;
17365;SDS011;8800;50.118;9.900;2022-09-09T14:42:55;3.70;;;0.70;;
17365;SDS011;8800;50.118;9.900;2022-09-09T14:45:21;3.55;;;0.63;;
17365;SDS011;8800;50.118;9.900;2022-09-09T14:47:49;3.72;;;0.93;;
17365;SDS011;8800;50.118;9.900;2022-09-09T14:50:16;2.78;;;0.50;;
17365;SDS011;8800;50.118;9.900;2022-09-09T14:52:42;2.25;;;0.75;;
17365;SDS011;8800;50.118;9.900;2022-09-09T14:55:09;2.80;;;0.70;;
17365;SDS011;8800;50.118;9.900;2022-09-09T14:57:36;1.85;;;0.40;;
17365;SDS011;8800;50.118;9.900;2022-09-09T15:00:06;2.00;;;0.50;;
17365;SDS011;8800;50.118;9.900;2022-09-09T15:02:33;1.83;;;0.55;;
17365;SDS011;8800;50.118;9.900;2022-09-09T15:04:59;2.03;;;0.40;;
17365;SDS011;8800;50.118;9.900;2022-09-09T15:07:26;3.78;;;0.43;;
17365;SDS011;8800;50.118;9.900;2022-09-09T15:09:53;2.00;;;0.80;;
17365;SDS011;8800;50.118;9.900;2022-09-09T15:12:19;3.45;;;0.47;;
17365;SDS011;8800;50.118;9.900;2022-09-09T15:14:46;2.25;;;0.60;;
17365;SDS011;8800;50.118;9.900;2022-09-09T15:17:14;5.03;;;0.70;;
17365;SDS011;8800;50.118;9.900;2022-09-09T15:19:40;2.53;;;0.65;;
17365;SDS011;8800;50.118;9.900;2022-09-09T15:22:07;5.18;;;0.60;;
17365;SDS011;8800;50.118;9.900;2022-09-09T15:24:34;3.63;;;0.40;;